KOLVKNQA

Guest
Details From KOLV - OLIVE BRANCH
To KNQA - Millington Muni
Flight Number -
Tags decoded
Created
Modified
Stats Distance 23 nm / 43 km
Max Altitude 0 ft / 0 m
Waypoints 2
Social Downloads 0
Likes 0
Share

Download

Looking for another format? Having issues loading an existing format? Contact us
Advertisement - Login to hide

Notes

Requested: KOLV KNQA

Route

KOLV KNQA

ID Type Via Altitude (ft/m) Position (lat/lon) Dist (leg/tot) Name
O KOLV APT - 0 / 0 34.97875 / -89.78685 - / 0 nm OLIVE BRANCH
O KNQA APT - 0 / 0 35.35664 / -89.87043 23 / 23 nm Millington Muni

Altitude Profile

Advertisement - Login to hide

KOLV

Details ICAO KOLV (OLV)
Name OLIVE BRANCH
Region United States
Timezone America/Chicago (UTC-6.0)
Stats Elevation 402 ft / 123 m (AMSL)
Location 34.978800° -89.786800°
Runways 1
Magnetic Variation 1.772° W

METAR

KOLV 021350Z 12003KT 10SM SCT120 BKN250 M01/M04 A3037

Decode

TAF

Not found

Departure Runways

ID Width Length Bearing (true/mag) Surface Threshold Overrun Markings Lighting
18 100 ft / 30 m 6,015 ft / 1,833 m 179.54° / 181.31° ASPHALT 0 ft / 0 m 0 ft / 0 m PREC-APP EDGE THRESHOLD REIL-OMNI
36 100 ft / 30 m 6,015 ft / 1,833 m 359.54° / 1.31° ASPHALT 0 ft / 0 m 0 ft / 0 m APP EDGE THRESHOLD

KNQA

Details ICAO KNQA (NQA)
Name Millington Muni
Region United States
Timezone America/Chicago (UTC-6.0)
Stats Elevation 320 ft / 98 m (AMSL)
Location 35.356600° -89.870400°
Runways 1
Magnetic Variation 1.744° W

METAR

KNQA 021350Z 00000KT 10SM CLR M02/M05 A3037

Decode

TAF

Not found

Destination Runways

ID Width Length Bearing (true/mag) Surface Threshold Overrun Markings Lighting
04 200 ft / 61 m 8,006 ft / 2,440 m 38.77° / 40.51° ASPHALT 0 ft / 0 m 259 ft / 79 m PREC-APP EDGE THRESHOLD REIL-OMNI
22 200 ft / 61 m 8,006 ft / 2,440 m 218.78° / 220.52° ASPHALT 0 ft / 0 m 259 ft / 79 m PREC-APP EDGE THRESHOLD REIL-OMNI

Approach Navaids

Runway Type Ident Frequency Range Bearing (true/mag) Slope Elevation
22 LOC-ILS INQA 109.75 MHz 18 nm / 33 km 218.76° / 220.51 ° - 320 ft / 98 m (AMSL)
22 GS INQA 109.75 MHz 10 nm / 19 km 219.54° / 221.28 ° 3.00° 318 ft / 97 m (AMSL)
22 DME INQA 109.75 MHz 18 nm / 33 km - - 320 ft / 98 m (AMSL)

Popular Alternatives